Time;durP1;ratioP1;P1;durP2;ratioP2;P2;SDS_P1;SDS_P2;PMS_P1;PMS_P2;Temp;Humidity;BMP_temperature;BMP_pressure;BME280_temperature;BME280_humidity;BME280_pressure;Samples;Min_cycle;Max_cycle;Signal;HPM_P1;HPM_P2
2022/12/14 00:01:55;;;;;;;;;;;;;;;-2.99;100.00;100319.59;5222187;28;19944;-78
2022/12/14 00:04:26;;;;;;;;;;;;;;;-2.96;100.00;100314.25;5221598;28;19913;-77
2022/12/14 00:06:58;;;;;;;;;;;;;;;-2.97;100.00;100315.19;5223100;28;19917;-77
2022/12/14 00:09:29;;;;;;;;;;;;;;;-2.97;100.00;100309.13;5223272;28;19966;-77
2022/12/14 00:12:00;;;;;;;;;;;;;;;-2.97;100.00;100296.91;5222367;28;19948;-77
2022/12/14 00:14:31;;;;;;;;;;;;;;;-2.98;100.00;100295.19;5221788;28;19921;-78
2022/12/14 00:17:02;;;;;;;;;;;;;;;-3.00;100.00;100288.31;5224297;28;19968;-77
2022/12/14 00:19:34;;;;;;;;;;;;;;;-2.99;100.00;100285.66;5228134;28;19924;-77
2022/12/14 00:22:05;;;;;;;;;;;;;;;-3.00;100.00;100286.56;5229787;28;19953;-77
2022/12/14 00:24:36;;;;;;;;;;;;;;;-3.02;100.00;100287.50;5226745;28;20306;-77
2022/12/14 00:27:07;;;;;;;;;;;;;;;-3.04;100.00;100292.75;5216721;28;19916;-77
2022/12/14 00:29:38;;;;;;;;;;;;;;;-3.04;100.00;100284.94;5214930;28;19971;-77
2022/12/14 00:32:09;;;;;;;;;;;;;;;-3.05;100.00;100290.19;5216909;28;20437;-77
2022/12/14 00:34:41;;;;;;;;;;;;;;;-3.04;100.00;100292.75;5214745;28;20028;-77
2022/12/14 00:37:12;;;;;;;;;;;;;;;-3.06;100.00;100288.50;5221125;28;19932;-77
2022/12/14 00:39:43;;;;;;;;;;;;;;;-3.08;100.00;100282.47;5220477;28;19950;-77
2022/12/14 00:42:14;;;;;;;;;;;;;;;-3.06;100.00;100276.31;5217194;28;19921;-77
2022/12/14 00:44:45;;;;;;;;;;;;;;;-3.10;100.00;100273.84;5216357;28;19913;-77
2022/12/14 00:47:17;;;;;;;;;;;;;;;-3.12;100.00;100260.84;5232851;28;19917;-77
2022/12/14 00:49:48;;;;;;;;;;;;;;;-3.14;100.00;100257.41;5219033;28;19921;-77
2022/12/14 00:52:19;;;;;;;;;;;;;;;-3.13;100.00;100253.03;5216837;28;20494;-77
2022/12/14 00:54:50;;;;;;;;;;;;;;;-3.16;100.00;100254.84;5222715;28;20322;-77
2022/12/14 00:57:22;;;;;;;;;;;;;;;-3.18;100.00;100255.81;5223268;28;20007;-76
2022/12/14 00:59:53;;;;;;;;;;;;;;;-3.21;100.00;100243.69;5220449;28;19913;-76
2022/12/14 01:02:24;;;;;;;;;;;;;;;-3.23;100.00;100257.69;5223387;28;20389;-76
2022/12/14 01:04:55;;;;;;;;;;;;;;;-3.24;100.00;100251.63;5217881;28;19955;-76
2022/12/14 01:07:26;;;;;;;;;;;;;;;-3.27;100.00;100259.53;5221236;28;19967;-76
2022/12/14 01:09:57;;;;;;;;;;;;;;;-3.31;100.00;100244.88;5218168;28;19967;-76
2022/12/14 01:12:29;;;;;;;;;;;;;;;-3.34;100.00;100239.72;5221779;28;19956;-76
2022/12/14 01:15:00;;;;;;;;;;;;;;;-3.35;100.00;100243.25;5218283;28;19920;-77
2022/12/14 01:17:31;;;;;;;;;;;;;;;-3.36;100.00;100236.31;5218012;28;19951;-76
2022/12/14 01:20:03;;;;;;;;;;;;;;;-3.39;100.00;100234.66;5218404;28;19970;-76
2022/12/14 01:22:34;;;;;;;;;;;;;;;-3.42;100.00;100231.28;5219802;28;19920;-76
2022/12/14 01:25:05;;;;;;;;;;;;;;;-3.42;100.00;100233.88;5221703;28;20008;-76
2022/12/14 01:27:36;;;;;;;;;;;;;;;-3.42;100.00;100229.50;5220989;28;20393;-76
2022/12/14 01:30:08;;;;;;;;;;;;;;;-3.43;100.00;100227.81;5218105;28;19917;-76
2022/12/14 01:32:39;;;;;;;;;;;;;;;-3.44;100.00;100233.06;5219487;28;20571;-76
2022/12/14 01:35:11;;;;;;;;;;;;;;;-3.45;100.00;100223.53;5225549;28;19924;-76
2022/12/14 01:37:42;;;;;;;;;;;;;;;-3.44;100.00;100220.88;5229620;28;20335;-76
2022/12/14 01:40:13;;;;;;;;;;;;;;;-3.45;100.00;100224.41;5224689;28;19997;-76
2022/12/14 01:42:44;;;;;;;;;;;;;;;-3.45;100.00;100233.97;5219433;28;19923;-76
2022/12/14 01:45:17;;;;;;;;;;;;;;;-3.44;100.00;100226.09;5222047;28;19921;-76
2022/12/14 01:47:54;;;;;;;;;;;;;;;-3.45;100.00;100224.41;5216135;28;19960;-76
2022/12/14 01:50:38;;;;;;;;;;;;;;;-3.46;100.00;100233.13;5217922;28;19948;-76
2022/12/14 01:53:14;;;;;;;;;;;;;;;-3.45;100.00;100229.63;5222428;28;19917;-76
2022/12/14 01:55:48;;;;;;;;;;;;;;;-3.44;100.00;100231.31;5214173;28;20407;-75
2022/12/14 01:58:23;;;;;;;;;;;;;;;-3.45;100.00;100229.63;5210866;28;19939;-76
2022/12/14 02:01:00;;;;;;;;;;;;;;;-3.46;100.00;100222.69;5217147;28;19924;-76
2022/12/14 02:03:36;;;;;;;;;;;;;;;-3.48;100.00;100216.66;5220369;28;20003;-76
2022/12/14 02:06:10;;;;;;;;;;;;;;;-3.49;100.00;100212.34;5218726;28;19916;-76
2022/12/14 02:08:42;;;;;;;;;;;;;;;-3.48;100.00;100214.03;5220822;28;19917;-75
2022/12/14 02:11:15;;;;;;;;;;;;;;;-3.48;100.00;100208.84;5220031;28;20007;-75
2022/12/14 02:13:46;;;;;;;;;;;;;;;-3.50;100.00;100202.81;5222879;28;19939;-76
2022/12/14 02:16:17;;;;;;;;;;;;;;;-3.53;100.00;100205.50;5217988;28;19964;-76
2022/12/14 02:18:48;;;;;;;;;;;;;;;-3.51;100.00;100208.91;5221357;28;19924;-76
2022/12/14 02:21:41;;;;;;;;;;;;;;;-3.53;100.00;100200.28;5221801;28;19917;-76
2022/12/14 02:24:31;;;;;;;;;;;;;;;-3.54;100.00;100203.81;5221973;28;20007;-76
2022/12/14 02:27:25;;;;;;;;;;;;;;;-3.57;100.00;100189.13;5220217;28;19912;-76
2022/12/14 02:30:14;;;;;;;;;;;;;;;-3.57;100.00;100193.44;5220626;28;19921;-75
2022/12/14 02:32:53;;;;;;;;;;;;;;;-3.58;100.00;100194.38;5219407;28;19974;-75
2022/12/14 02:35:37;;;;;;;;;;;;;;;-3.59;100.00;100190.03;5228680;28;20382;-76
2022/12/14 02:38:14;;;;;;;;;;;;;;;-3.60;100.00;100183.97;5224172;28;20319;-75
2022/12/14 02:41:04;;;;;;;;;;;;;;;-3.59;100.00;100184.81;5229392;28;19916;-76
2022/12/14 02:43:41;;;;;;;;;;;;;;;-3.59;100.00;100192.63;5228417;28;19924;-76
2022/12/14 02:46:18;;;;;;;;;;;;;;;-3.61;100.00;100178.78;5226294;28;19909;-75
2022/12/14 02:49:08;;;;;;;;;;;;;;;-3.62;100.00;100177.94;5229462;28;19916;-76
2022/12/14 02:51:56;;;;;;;;;;;;;;;-3.64;100.00;100178.91;5225000;28;19963;-76
2022/12/14 02:54:40;;;;;;;;;;;;;;;-3.64;100.00;100186.72;5228007;28;20489;-75
2022/12/14 02:57:18;;;;;;;;;;;;;;;-3.66;100.00;100189.38;5229995;28;19924;-76
2022/12/14 02:59:52;;;;;;;;;;;;;;;-3.66;100.00;100184.16;5228468;28;19952;-76
2022/12/14 03:02:24;;;;;;;;;;;;;;;-3.66;100.00;100183.28;5228075;28;19913;-76
2022/12/14 03:04:55;;;;;;;;;;;;;;;-3.64;100.00;100190.19;5232089;28;20437;-76
2022/12/14 03:07:32;;;;;;;;;;;;;;;-3.63;100.00;100193.63;5226668;28;20320;-76
2022/12/14 03:10:15;;;;;;;;;;;;;;;-3.60;100.00;100194.41;5225123;28;19913;-76
2022/12/14 03:12:53;;;;;;;;;;;;;;;-3.58;100.00;100184.78;5228810;28;19960;-76
2022/12/14 03:15:25;;;;;;;;;;;;;;;-3.58;100.00;100189.16;5223635;28;19917;-76
2022/12/14 03:17:59;;;;;;;;;;;;;;;-3.58;100.00;100181.31;5228842;28;19932;-76
2022/12/14 03:20:31;;;;;;;;;;;;;;;-3.57;100.00;100173.47;5227143;28;19985;-76
2022/12/14 03:23:06;;;;;;;;;;;;;;;-3.54;100.00;100162.09;5233495;28;19917;-76
2022/12/14 03:25:43;;;;;;;;;;;;;;;-3.54;100.00;100172.50;5227652;28;19916;-76
2022/12/14 03:28:14;;;;;;;;;;;;;;;-3.52;100.00;100169.88;5223952;28;20011;-76
2022/12/14 03:30:50;;;;;;;;;;;;;;;-3.50;100.00;100160.25;5225747;28;20359;-76
2022/12/14 03:33:22;;;;;;;;;;;;;;;-3.49;100.00;100154.09;5226593;28;19923;-77
2022/12/14 03:35:57;;;;;;;;;;;;;;;-3.49;100.00;100139.34;5225483;28;19924;-76
2022/12/14 03:38:37;;;;;;;;;;;;;;;-3.49;100.00;100133.25;5227066;28;19921;-77
2022/12/14 03:41:15;;;;;;;;;;;;;;;-3.51;100.00;100135.06;5229012;28;19947;-76
2022/12/14 03:44:13;;;;;;;;;;;;;;;-3.52;100.00;100136.81;5226904;28;20248;-77
2022/12/14 03:47:02;;;;;;;;;;;;;;;-3.53;100.00;100134.25;5228869;28;19917;-76
2022/12/14 03:49:44;;;;;;;;;;;;;;;-3.55;100.00;100134.28;5227567;28;19917;-76
2022/12/14 03:52:16;;;;;;;;;;;;;;;-3.55;100.00;100140.38;5227841;28;20410;-77
2022/12/14 03:54:52;;;;;;;;;;;;;;;-3.54;100.00;100136.00;5222237;28;19956;-76
2022/12/14 03:57:37;;;;;;;;;;;;;;;-3.53;100.00;100140.31;5215145;28;19921;-76
2022/12/14 04:00:10;;;;;;;;;;;;;;;-3.53;100.00;100124.66;5222561;28;19927;-76
2022/12/14 04:02:41;;;;;;;;;;;;;;;-3.51;100.00;100119.41;5211664;28;19921;-76
2022/12/14 04:05:15;;;;;;;;;;;;;;;-3.53;100.00;100118.59;5213258;28;19931;-76
2022/12/14 04:08:09;;;;;;;;;;;;;;;-3.53;100.00;100111.63;5213527;28;20294;-77
2022/12/14 04:19:23;;;;;;;;;;;;;;;-3.52;100.00;100094.25;5212175;28;20323;-77
2022/12/14 04:21:57;;;;;;;;;;;;;;;-3.52;100.00;100089.03;5215825;28;19928;-77
2022/12/14 04:27:53;;;;;;;;;;;;;;;-3.52;100.00;100087.28;5215176;28;19928;-77
2022/12/14 04:30:26;;;;;;;;;;;;;;;-3.49;100.00;100094.13;5220329;28;19928;-77
2022/12/14 04:32:59;;;;;;;;;;;;;;;-3.48;100.00;100095.84;5213665;28;19924;-77
2022/12/14 04:35:53;;;;;;;;;;;;;;;-3.47;100.00;100090.59;5220373;28;19972;-77
2022/12/14 04:38:27;;;;;;;;;;;;;;;-3.45;100.00;100087.91;5217549;28;19987;-77
2022/12/14 04:41:02;;;;;;;;;;;;;;;-3.45;100.00;100083.59;5218836;28;19913;-76
2022/12/14 04:43:42;;;;;;;;;;;;;;;-3.45;100.00;100082.72;5216520;28;22319;-76
2022/12/14 04:46:16;;;;;;;;;;;;;;;-3.43;100.00;100084.38;5220759;28;19966;-76
2022/12/14 04:48:48;;;;;;;;;;;;;;;-3.45;100.00;100073.16;5217642;28;19920;-76
2022/12/14 04:51:24;;;;;;;;;;;;;;;-3.45;100.00;100077.50;5216368;28;19928;-76
2022/12/14 04:53:58;;;;;;;;;;;;;;;-3.42;100.00;100074.81;5216157;28;20665;-77
2022/12/14 04:56:40;;;;;;;;;;;;;;;-3.41;100.00;100073.91;5218415;28;19920;-77
2022/12/14 04:59:12;;;;;;;;;;;;;;;-3.41;100.00;100068.69;5215720;28;19921;-77
2022/12/14 05:02:16;;;;;;;;;;;;;;;-3.41;100.00;100063.47;5221684;28;19978;-77
2022/12/14 05:04:59;;;;;;;;;;;;;;;-3.40;100.00;100071.22;5200087;28;19923;-77
2022/12/14 05:07:36;;;;;;;;;;;;;;;-3.42;100.00;100070.44;5227234;28;20001;-76
2022/12/14 05:10:19;;;;;;;;;;;;;;;-3.42;100.00;100072.19;5217001;28;19917;-77
2022/12/14 05:13:09;;;;;;;;;;;;;;;-3.42;100.00;100072.19;5220172;28;19939;-77
2022/12/14 05:15:45;;;;;;;;;;;;;;;-3.41;100.00;100068.69;5216167;28;19917;-77
2022/12/14 05:18:16;;;;;;;;;;;;;;;-3.40;100.00;100065.16;5218075;28;20372;-77
2022/12/14 05:20:48;;;;;;;;;;;;;;;-3.39;100.00;100062.53;5217252;28;19955;-76
2022/12/14 05:23:19;;;;;;;;;;;;;;;-3.40;100.00;100052.97;5223517;28;20018;-76
2022/12/14 05:25:51;;;;;;;;;;;;;;;-3.39;100.00;100051.25;5225253;28;20318;-77
2022/12/14 05:28:22;;;;;;;;;;;;;;;-3.40;100.00;100055.59;5221970;28;20055;-77
2022/12/14 05:30:53;;;;;;;;;;;;;;;-3.41;100.00;100053.91;5222763;28;19917;-76
2022/12/14 05:33:25;;;;;;;;;;;;;;;-3.42;100.00;100046.13;5225855;28;19932;-76
2022/12/14 05:35:56;;;;;;;;;;;;;;;-3.42;100.00;100048.72;5222764;28;19921;-77
2022/12/14 05:38:27;;;;;;;;;;;;;;;-3.42;100.00;100046.13;5225441;28;19917;-77
2022/12/14 05:40:58;;;;;;;;;;;;;;;-3.41;100.00;100042.63;5227943;28;20477;-76
2022/12/14 05:43:29;;;;;;;;;;;;;;;-3.43;100.00;100049.59;5224055;28;19917;-76
2022/12/14 05:46:02;;;;;;;;;;;;;;;-3.43;100.00;100049.59;5228770;28;19928;-76
2022/12/14 05:48:34;;;;;;;;;;;;;;;-3.44;100.00;100045.31;5230646;28;20351;-76
2022/12/14 05:51:06;;;;;;;;;;;;;;;-3.47;100.00;100048.00;5221748;28;20049;-76
2022/12/14 05:53:38;;;;;;;;;;;;;;;-3.49;100.00;100045.47;5227126;28;20529;-76
2022/12/14 05:56:10;;;;;;;;;;;;;;;-3.48;100.00;100052.38;5224349;28;20502;-76
2022/12/14 05:58:41;;;;;;;;;;;;;;;-3.47;100.00;100045.41;5228813;28;19932;-76
2022/12/14 06:01:12;;;;;;;;;;;;;;;-3.47;100.00;100051.50;5225219;28;19917;-76
2022/12/14 06:03:44;;;;;;;;;;;;;;;-3.48;100.00;100043.72;5229699;28;19931;-76
2022/12/14 06:06:16;;;;;;;;;;;;;;;-3.46;100.00;100040.13;5224887;28;20295;-77
2022/12/14 06:08:47;;;;;;;;;;;;;;;-3.44;100.00;100047.91;5238686;28;19986;-76
2022/12/14 06:11:19;;;;;;;;;;;;;;;-3.44;100.00;100043.53;5225932;28;19962;-76
2022/12/14 06:13:51;;;;;;;;;;;;;;;-3.43;100.00;100040.06;5231864;28;19976;-76
2022/12/14 06:16:23;;;;;;;;;;;;;;;-3.42;100.00;100040.91;5227354;28;20015;-76
2022/12/14 06:18:55;;;;;;;;;;;;;;;-3.42;100.00;100031.31;5224038;28;20357;-76
2022/12/14 06:21:28;;;;;;;;;;;;;;;-3.41;100.00;100026.97;5228866;28;19917;-77
2022/12/14 06:23:59;;;;;;;;;;;;;;;-3.44;100.00;100035.72;5226622;28;19917;-76
2022/12/14 06:26:32;;;;;;;;;;;;;;;-3.45;100.00;100036.66;5228823;28;20425;-76
2022/12/14 06:29:03;;;;;;;;;;;;;;;-3.46;100.00;100039.28;5227420;28;19917;-76
2022/12/14 06:31:34;;;;;;;;;;;;;;;-3.45;100.00;100041.84;5219275;28;19968;-76
2022/12/14 06:34:05;;;;;;;;;;;;;;;-3.42;100.00;100035.69;5224524;28;19927;-76
2022/12/14 06:36:38;;;;;;;;;;;;;;;-3.42;100.00;100033.91;5221696;28;20349;-76
2022/12/14 06:39:11;;;;;;;;;;;;;;;-3.43;100.00;100034.84;5224078;28;19920;-76
2022/12/14 06:41:42;;;;;;;;;;;;;;;-3.42;100.00;100033.91;5224903;28;20490;-76
2022/12/14 06:44:14;;;;;;;;;;;;;;;-3.41;100.00;100040.00;5222996;28;19956;-77
2022/12/14 06:46:45;;;;;;;;;;;;;;;-3.41;100.00;100046.06;5226029;28;20003;-76
2022/12/14 06:49:17;;;;;;;;;;;;;;;-3.43;100.00;100042.66;5225136;28;19913;-76
2022/12/14 06:51:48;;;;;;;;;;;;;;;-3.44;100.00;100050.53;5241186;28;20096;-77
2022/12/14 06:54:19;;;;;;;;;;;;;;;-3.43;100.00;100047.00;5220504;28;20338;-76
2022/12/14 06:56:50;;;;;;;;;;;;;;;-3.45;100.00;100047.06;5226713;28;20297;-76
2022/12/14 06:59:22;;;;;;;;;;;;;;;-3.46;100.00;100045.34;5225036;28;19913;-77
2022/12/14 07:01:53;;;;;;;;;;;;;;;-3.45;100.00;100040.97;5226290;28;19927;-76
2022/12/14 07:04:24;;;;;;;;;;;;;;;-3.48;100.00;100041.09;5220161;28;20499;-77
2022/12/14 07:06:55;;;;;;;;;;;;;;;-3.49;100.00;100049.81;5223852;28;19943;-77
2022/12/14 07:09:26;;;;;;;;;;;;;;;-3.50;100.00;100059.41;5221155;28;20011;-77
2022/12/14 07:11:58;;;;;;;;;;;;;;;-3.48;100.00;100051.53;5223041;28;19928;-77
2022/12/14 07:14:29;;;;;;;;;;;;;;;-3.50;100.00;100054.19;5224124;28;19917;-76
2022/12/14 07:17:00;;;;;;;;;;;;;;;-3.52;100.00;100047.31;5225114;28;19921;-76
2022/12/14 07:19:31;;;;;;;;;;;;;;;-3.50;100.00;100048.13;5224724;28;20754;-76
2022/12/14 07:22:03;;;;;;;;;;;;;;;-3.54;100.00;100052.56;5223141;28;20216;-76
2022/12/14 07:24:34;;;;;;;;;;;;;;;-3.54;100.00;100057.78;5224236;28;19913;-76
2022/12/14 07:27:06;;;;;;;;;;;;;;;-3.54;100.00;100055.19;5224048;28;20051;-77
2022/12/14 07:29:37;;;;;;;;;;;;;;;-3.55;100.00;100050.84;5230784;28;19978;-77
2022/12/14 07:32:08;;;;;;;;;;;;;;;-3.55;100.00;100063.88;5230730;28;19917;-77
2022/12/14 07:34:39;;;;;;;;;;;;;;;-3.57;100.00;100066.56;5225685;28;19924;-77
2022/12/14 07:37:12;;;;;;;;;;;;;;;-3.59;100.00;100060.53;5234424;28;19921;-76
2022/12/14 07:39:43;;;;;;;;;;;;;;;-3.60;100.00;100064.03;5228406;28;20322;-76
2022/12/14 07:42:14;;;;;;;;;;;;;;;-3.63;100.00;100056.31;5233838;28;20319;-76
2022/12/14 07:44:45;;;;;;;;;;;;;;;-3.63;100.00;100061.53;5227796;28;19921;-76
2022/12/14 07:47:17;;;;;;;;;;;;;;;-3.64;100.00;100052.00;5237985;28;20283;-76
2022/12/14 07:49:48;;;;;;;;;;;;;;;-3.64;100.00;100061.59;5230166;28;20015;-76
2022/12/14 07:52:19;;;;;;;;;;;;;;;-3.63;100.00;100060.69;5233260;28;19924;-76
2022/12/14 07:54:50;;;;;;;;;;;;;;;-3.64;100.00;100057.22;5231032;28;20344;-76
2022/12/14 07:57:21;;;;;;;;;;;;;;;-3.65;100.00;100054.66;5234059;28;19917;-76
2022/12/14 07:59:52;;;;;;;;;;;;;;;-3.68;100.00;100059.94;5235577;28;19917;-76
2022/12/14 08:02:24;;;;;;;;;;;;;;;-3.69;100.00;100061.72;5235285;28;19916;-76
2022/12/14 08:04:55;;;;;;;;;;;;;;;-3.72;100.00;100068.78;5223215;28;19924;-76
2022/12/14 08:07:26;;;;;;;;;;;;;;;-3.74;100.00;100063.59;5232906;28;19928;-76
2022/12/14 08:09:57;;;;;;;;;;;;;;;-3.76;100.00;100073.22;5233308;28;20367;-76
2022/12/14 08:12:29;;;;;;;;;;;;;;;-3.79;100.00;100065.50;5234392;28;20401;-76
2022/12/14 08:15:00;;;;;;;;;;;;;;;-3.82;100.00;100074.25;5228921;28;19917;-76
2022/12/14 08:17:31;;;;;;;;;;;;;;;-3.87;100.00;100075.28;5233351;28;20012;-76
2022/12/14 08:20:03;;;;;;;;;;;;;;;-3.88;100.00;100074.44;5233294;28;19921;-76
2022/12/14 08:22:34;;;;;;;;;;;;;;;-3.89;100.00;100082.31;5232775;28;20391;-76
2022/12/14 08:25:05;;;;;;;;;;;;;;;-3.91;100.00;100091.91;5230713;28;20339;-76
2022/12/14 08:27:36;;;;;;;;;;;;;;;-3.95;100.00;100083.34;5229886;28;20012;-76
2022/12/14 08:30:08;;;;;;;;;;;;;;;-3.97;100.00;100087.72;5239476;28;20106;-76
2022/12/14 08:32:39;;;;;;;;;;;;;;;-3.99;100.00;100081.72;5223276;28;20119;-76
2022/12/14 08:35:10;;;;;;;;;;;;;;;-4.02;100.00;100087.88;5233422;28;20055;-76
2022/12/14 08:37:42;;;;;;;;;;;;;;;-4.04;100.00;100081.88;5231874;28;20022;-76
2022/12/14 08:40:13;;;;;;;;;;;;;;;-4.05;100.00;100087.97;5234427;28;19927;-76
2022/12/14 08:42:44;;;;;;;;;;;;;;;-4.07;100.00;100087.16;5230106;28;19919;-76
2022/12/14 08:45:15;;;;;;;;;;;;;;;-4.10;100.00;100091.59;5235487;28;20393;-76
2022/12/14 08:47:47;;;;;;;;;;;;;;;-4.14;100.00;100090.84;5232180;28;19978;-76
2022/12/14 08:50:18;;;;;;;;;;;;;;;-4.15;100.00;100091.72;5234886;28;19948;-76
2022/12/14 08:52:49;;;;;;;;;;;;;;;-4.15;100.00;100087.38;5229510;28;20358;-76
2022/12/14 08:55:22;;;;;;;;;;;;;;;-4.14;100.00;100085.63;5232972;28;20432;-76
2022/12/14 08:57:53;;;;;;;;;;;;;;;-4.16;100.00;100090.88;5232931;28;20252;-76
2022/12/14 09:00:24;;;;;;;;;;;;;;;-4.18;100.00;100079.66;5233951;28;19971;-76
2022/12/14 09:02:55;;;;;;;;;;;;;;;-4.17;100.00;100089.16;5228294;28;20419;-76
2022/12/14 09:05:26;;;;;;;;;;;;;;;-4.16;100.00;100079.59;5234425;28;20286;-76
2022/12/14 09:07:58;;;;;;;;;;;;;;;-4.17;100.00;100085.72;5235283;28;19916;-75
2022/12/14 09:10:29;;;;;;;;;;;;;;;-4.17;100.00;100091.75;5245066;28;19940;-76
2022/12/14 09:13:00;;;;;;;;;;;;;;;-4.19;100.00;100101.38;5232165;28;20016;-76
2022/12/14 09:15:31;;;;;;;;;;;;;;;-4.19;100.00;100105.75;5236320;28;20359;-76
2022/12/14 09:18:04;;;;;;;;;;;;;;;-4.20;100.00;100102.28;5233155;28;20003;-76
2022/12/14 09:20:35;;;;;;;;;;;;;;;-4.17;100.00;100106.56;5230040;28;20414;-76
2022/12/14 09:23:06;;;;;;;;;;;;;;;-4.18;100.00;100115.25;5237926;28;19921;-76
2022/12/14 09:25:38;;;;;;;;;;;;;;;-4.21;100.00;100113.59;5237905;28;20051;-76
2022/12/14 09:28:09;;;;;;;;;;;;;;;-4.21;100.00;100116.19;5232702;28;20075;-76
2022/12/14 09:30:40;;;;;;;;;;;;;;;-4.19;100.00;100113.56;5235494;28;20285;-76
2022/12/14 09:33:11;;;;;;;;;;;;;;;-4.20;100.00;100115.31;5230744;28;19923;-76
2022/12/14 09:35:43;;;;;;;;;;;;;;;-4.19;100.00;100111.78;5237548;28;20190;-76
2022/12/14 09:38:14;;;;;;;;;;;;;;;-4.18;100.00;100117.84;5231756;28;19924;-76
2022/12/14 09:40:51;;;;;;;;;;;;;;;-4.17;100.00;100115.22;5234595;28;20390;-76
2022/12/14 09:43:43;;;;;;;;;;;;;;;-4.16;100.00;100114.31;5233211;28;20379;-76
2022/12/14 09:46:26;;;;;;;;;;;;;;;-4.14;100.00;100107.31;5235352;28;19913;-76
2022/12/14 09:48:57;;;;;;;;;;;;;;;-4.08;100.00;100097.63;5228664;28;19987;-76
2022/12/14 09:51:33;;;;;;;;;;;;;;;-4.07;100.00;100101.94;5232685;28;19917;-76
2022/12/14 09:54:06;;;;;;;;;;;;;;;-4.06;100.00;100101.91;5231513;28;19924;-76
2022/12/14 09:56:38;;;;;;;;;;;;;;;-4.03;100.00;100106.16;5228515;28;19925;-76
2022/12/14 09:59:13;;;;;;;;;;;;;;;-4.02;100.00;100111.31;5228836;28;19921;-76
2022/12/14 10:01:50;;;;;;;;;;;;;;;-3.99;100.00;100119.06;5235807;28;19999;-76
2022/12/14 10:04:27;;;;;;;;;;;;;;;-3.96;100.00;100115.50;5233805;28;20077;-77
2022/12/14 10:07:11;;;;;;;;;;;;;;;-3.91;100.00;100123.19;5235203;28;19913;-76
2022/12/14 10:10:02;;;;;;;;;;;;;;;-3.91;100.00;100110.16;5224881;28;19971;-76
2022/12/14 10:12:39;;;;;;;;;;;;;;;-3.90;100.00;100102.31;5227339;28;19924;-76
2022/12/14 10:15:19;;;;;;;;;;;;;;;-3.87;100.00;100107.44;5243426;28;19920;-76
2022/12/14 10:17:59;;;;;;;;;;;;;;;-3.87;100.00;100097.00;5229621;28;19916;-76
2022/12/14 10:20:36;;;;;;;;;;;;;;;-3.84;100.00;100096.91;5232428;28;19921;-77
2022/12/14 10:23:12;;;;;;;;;;;;;;;-3.81;100.00;100089.00;5232846;28;20307;-76
2022/12/14 10:25:45;;;;;;;;;;;;;;;-3.78;100.00;100096.75;5234647;28;19917;-77
2022/12/14 10:28:19;;;;;;;;;;;;;;;-3.73;100.00;100108.78;5232121;28;19927;-77
2022/12/14 10:30:53;;;;;;;;;;;;;;;-3.70;100.00;100100.84;5235640;28;19917;-76
2022/12/14 10:33:28;;;;;;;;;;;;;;;-3.68;100.00;100105.16;5231103;28;19958;-77
2022/12/14 10:36:09;;;;;;;;;;;;;;;-3.64;100.00;100111.13;5234235;28;20003;-77
2022/12/14 10:38:40;;;;;;;;;;;;;;;-3.62;100.00;100102.34;5222666;28;20389;-77
2022/12/14 10:41:17;;;;;;;;;;;;;;;-3.61;100.00;100108.41;5229769;28;20024;-77
2022/12/14 10:44:02;;;;;;;;;;;;;;;-3.56;100.00;100102.16;5226138;28;19913;-77
2022/12/14 10:46:43;;;;;;;;;;;;;;;-3.53;100.00;100109.03;5239809;28;19960;-77
2022/12/14 10:49:24;;;;;;;;;;;;;;;-3.49;100.00;100104.56;5229548;28;19921;-78
2022/12/14 10:52:07;;;;;;;;;;;;;;;-3.45;100.00;100112.28;5231258;28;19939;-77
2022/12/14 10:54:57;;;;;;;;;;;;;;;-3.42;100.00;100113.91;5236152;28;20359;-77
2022/12/14 10:57:28;;;;;;;;;;;;;;;-3.38;100.00;100105.94;5239601;28;19921;-77
2022/12/14 10:59:59;;;;;;;;;;;;;;;-3.35;100.00;100103.25;5225920;28;19924;-77
2022/12/14 11:02:32;;;;;;;;;;;;;;;-3.30;100.00;100108.31;5230509;28;19921;-78
2022/12/14 11:05:22;;;;;;;;;;;;;;;-3.28;100.00;100108.25;5230146;28;20359;-77
2022/12/14 11:07:55;;;;;;;;;;;;;;;-3.26;100.00;100109.94;5232561;28;20327;-78
2022/12/14 11:10:27;;;;;;;;;;;;;;;-3.22;100.00;100105.47;5238592;28;19983;-78
2022/12/14 11:12:58;;;;;;;;;;;;;;;-3.19;100.00;100119.25;5238288;28;20338;-78
2022/12/14 11:15:40;;;;;;;;;;;;;;;-3.16;100.00;100116.56;5235941;28;20007;-78
2022/12/14 11:18:14;;;;;;;;;;;;;;;-3.11;100.00;100108.59;5236631;28;19927;-79
2022/12/14 11:20:49;;;;;;;;;;;;;;;-3.07;100.00;100114.56;5234033;28;19920;-79
2022/12/14 11:23:24;;;;;;;;;;;;;;;-3.06;100.00;100106.69;5237029;28;19920;-78
2022/12/14 11:25:59;;;;;;;;;;;;;;;-3.02;100.00;100115.28;5236947;28;19917;-78
2022/12/14 11:28:46;;;;;;;;;;;;;;;-3.00;100.00;100114.31;5238066;28;19921;-78
2022/12/14 11:31:33;;;;;;;;;;;;;;;-2.97;100.00;100114.22;5234172;28;20191;-78
2022/12/14 11:34:05;;;;;;;;;;;;;;;-2.92;100.00;100113.22;5236447;28;19920;-78
2022/12/14 11:36:38;;;;;;;;;;;;;;;-2.93;100.00;100114.97;5253032;28;19917;-78
2022/12/14 11:39:12;;;;;;;;;;;;;;;-2.92;100.00;100102.78;5229542;28;19920;-78
2022/12/14 11:41:48;;;;;;;;;;;;;;;-2.89;100.00;100113.13;5232158;28;19920;-78
2022/12/14 11:44:21;;;;;;;;;;;;;;;-2.86;100.00;100108.63;5237200;28;20394;-78
2022/12/14 11:46:53;;;;;;;;;;;;;;;-2.86;100.00;100106.03;5237986;28;19920;-78
2022/12/14 11:49:28;;;;;;;;;;;;;;;-2.85;100.00;100099.06;5236530;28;20300;-79
2022/12/14 11:51:59;;;;;;;;;;;;;;;-2.82;100.00;100104.16;5238259;28;19921;-78
2022/12/14 11:54:31;;;;;;;;;;;;;;;-2.81;100.00;100106.72;5235452;28;19991;-78
2022/12/14 11:57:06;;;;;;;;;;;;;;;-2.80;100.00;100113.66;5235270;28;19921;-78
2022/12/14 11:59:37;;;;;;;;;;;;;;;-2.77;100.00;100108.34;5238657;28;19917;-79
2022/12/14 12:02:31;;;;;;;;;;;;;;;-2.77;100.00;100112.72;5235199;28;19916;-79
2022/12/14 12:05:14;;;;;;;;;;;;;;;-2.75;100.00;100108.28;5235629;28;19920;-78
2022/12/14 12:07:49;;;;;;;;;;;;;;;-2.72;100.00;100109.94;5235670;28;19912;-78
2022/12/14 12:10:24;;;;;;;;;;;;;;;-2.71;100.00;100109.88;5237735;28;20004;-78
2022/12/14 12:12:58;;;;;;;;;;;;;;;-2.68;100.00;100108.94;5243164;28;20265;-79
2022/12/14 12:15:32;;;;;;;;;;;;;;;-2.66;100.00;100105.38;5238516;28;20051;-79
2022/12/14 12:18:06;;;;;;;;;;;;;;;-2.65;100.00;100112.28;5233675;28;20357;-78
2022/12/14 12:20:41;;;;;;;;;;;;;;;-2.63;100.00;100104.41;5248670;28;19913;-79
2022/12/14 12:23:18;;;;;;;;;;;;;;;-2.63;100.00;100102.66;5246136;28;19917;-78
2022/12/14 12:25:52;;;;;;;;;;;;;;;-2.63;100.00;100100.06;5243798;28;19955;-78
2022/12/14 12:28:25;;;;;;;;;;;;;;;-2.59;100.00;100106.88;5233573;28;19913;-79
2022/12/14 12:31:02;;;;;;;;;;;;;;;-2.54;100.00;100105.84;5242227;28;19963;-80
2022/12/14 12:33:36;;;;;;;;;;;;;;;-2.53;100.00;100108.44;5238144;28;19928;-79
2022/12/14 12:36:08;;;;;;;;;;;;;;;-2.48;100.00;100108.25;5246378;28;19928;-79
2022/12/14 12:38:57;;;;;;;;;;;;;;;-2.46;100.00;100109.91;5249266;28;19920;-79
2022/12/14 12:41:31;;;;;;;;;;;;;;;-2.44;100.00;100104.63;5236593;28;19912;-79
2022/12/14 12:44:21;;;;;;;;;;;;;;;-2.43;100.00;100107.19;5240042;28;20386;-78
2022/12/14 12:47:08;;;;;;;;;;;;;;;-2.43;100.00;100111.56;5239695;28;19913;-79
2022/12/14 12:49:39;;;;;;;;;;;;;;;-2.41;100.00;100109.75;5237684;28;20291;-79
2022/12/14 12:52:21;;;;;;;;;;;;;;;-2.40;100.00;100121.88;5242963;28;19919;-79
2022/12/14 12:54:55;;;;;;;;;;;;;;;-2.34;100.00;100115.59;5237531;28;19913;-79
2022/12/14 12:57:28;;;;;;;;;;;;;;;-2.34;100.00;100116.44;5238987;28;19924;-79
2022/12/14 13:00:00;;;;;;;;;;;;;;;-2.32;100.00;100119.88;5240558;28;19912;-79
2022/12/14 13:02:41;;;;;;;;;;;;;;;-2.30;100.00;100118.06;5232535;28;20321;-79
2022/12/14 13:05:14;;;;;;;;;;;;;;;-2.30;100.00;100122.41;5241962;28;20343;-79
2022/12/14 13:07:48;;;;;;;;;;;;;;;-2.29;100.00;100122.38;5235078;28;19917;-79
2022/12/14 13:10:21;;;;;;;;;;;;;;;-2.26;100.00;100127.50;5241878;28;19967;-80
2022/12/14 13:12:55;;;;;;;;;;;;;;;-2.22;100.00;100130.88;5243186;28;19909;-79
2022/12/14 13:15:27;;;;;;;;;;;;;;;-2.19;100.00;100135.97;5243385;28;19931;-80
2022/12/14 13:18:04;;;;;;;;;;;;;;;-2.19;100.00;100136.84;5240967;28;19913;-81